Stacja Pogody
Warszawa Praga Północ

 Szerokość N 52° 15 '43"    Długość E 21° 01' 22"    Wysokość 89 m n.p.m.


Wschód Słońca 05:47 Górowanie Słońca 12:35 Zachód Słońca 19:23 panna
Data juliańska 2457268.511 Odległość Słońca 150916192 km Średn. kątowa Słońca 0,317°
Wschód Księżyca 21:13 Zachód Księżyca 10:31 Wiek Księżyca 18 dni Moon
Widoczność Księżyca 85,89% Odległość Księżyca 364777 km Średn. kątowa Księżyca 0,328°
Dzień krótszy od najdłuższego o: 03:11 Długość dnia 13:36 Imieniny Juliana, Stefana, Wilhelma




 Aktualizacja: 02-09-2015 00:10
TEMPERATURA
Aktualnie: 26.4°C ↓
Temperatura odczuwalna:27.4°C
Punkt rosy13.2°C
WIATR
Średnia prędkość: 0.0km/h →
Prędkość w podmuchach:0.0km/h
Przepływ w ciągu doby:109.2km
Kierunek wiatru:S
CIŚNIENIE
Względne:1005.0hPa
Bezwzględne:992.4hPa
Trend ciśnienia:powolny spadek
WILGOTNOŚĆ
Wilgotność względna: 44% ↑
Podstawa chmur4593m
DESZCZ
W ciągu ostatnich 10 minut: 0.0mm
W ostatniej godzinie: 0.0mm
Dzisiaj:14.4mm
W tym miesiącu:0.0mm
METAR / TAF
METAR EPWA 012200Z 13004KT CAVOK 22/14 Q1005 NOSIG   TAF EPWA 011730Z 0118/0218 VRB02KT CAVOK
Ostrzeżenia burzowe





 a

Valid XHTML 1.0 Transitional Valid CSS!